Stroby Egede, Denmark
Current Conditions -  °F | °C
As of 1:50 PM on Friday 31 Oct 2014 (Local Time) from EKRK Reporting Station
Haze Haze  
Wind Chill: 10°   Ceiling: 500
Heat Index: 10°   Visibility: 3mi
Dew Point: 10°   Wind: 8mph
Humidity: 100%   Direction: 140°SE
Pressure: 30.18"   Gusts: NA
Location:  55.41°N, 12.25°E
Report Text: EKRK 311250Z AUTO 14007KT 4800NDV BR SCT003/// OVC005///10/10 Q1022
Loading
Personal Weather Stations






























Interactive Weather Map
Tropical Storm Tracking
New forecast layout! Learn more

10-Day Weather Forecast

Advertisements
Track Severe Weather on mobile